sensor_id;sensor_type;location;lat;lon;timestamp;P1;durP1;ratioP1;P2;durP2;ratioP2
57655;SDS011;43482;53.334;6.744;2022-09-09T00:02:17;8.50;;;7.70;;
57655;SDS011;43482;53.334;6.744;2022-09-09T00:05:12;9.02;;;8.38;;
57655;SDS011;43482;53.334;6.744;2022-09-09T00:07:42;8.85;;;7.72;;
57655;SDS011;43482;53.334;6.744;2022-09-09T00:10:17;8.50;;;7.90;;
57655;SDS011;43482;53.334;6.744;2022-09-09T00:15:28;9.07;;;8.48;;
57655;SDS011;43482;53.334;6.744;2022-09-09T00:18:03;10.00;;;9.07;;
57655;SDS011;43482;53.334;6.744;2022-09-09T00:20:45;8.40;;;7.70;;
57655;SDS011;43482;53.334;6.744;2022-09-09T00:28:29;10.18;;;8.25;;
57655;SDS011;43482;53.334;6.744;2022-09-09T00:31:08;8.40;;;7.68;;
57655;SDS011;43482;53.334;6.744;2022-09-09T00:33:37;11.38;;;7.60;;
57655;SDS011;43482;53.334;6.744;2022-09-09T00:36:04;8.02;;;7.28;;
57655;SDS011;43482;53.334;6.744;2022-09-09T00:39:12;8.05;;;7.35;;
57655;SDS011;43482;53.334;6.744;2022-09-09T00:41:46;8.73;;;8.02;;
57655;SDS011;43482;53.334;6.744;2022-09-09T00:44:35;9.35;;;8.45;;
57655;SDS011;43482;53.334;6.744;2022-09-09T00:57:31;9.45;;;7.50;;
57655;SDS011;43482;53.334;6.744;2022-09-09T01:06:04;9.25;;;8.48;;
57655;SDS011;43482;53.334;6.744;2022-09-09T01:11:19;8.18;;;7.57;;
57655;SDS011;43482;53.334;6.744;2022-09-09T01:13:49;8.63;;;7.95;;
57655;SDS011;43482;53.334;6.744;2022-09-09T01:16:23;8.73;;;8.10;;
57655;SDS011;43482;53.334;6.744;2022-09-09T01:18:51;8.75;;;8.15;;
57655;SDS011;43482;53.334;6.744;2022-09-09T01:26:52;8.88;;;8.15;;
57655;SDS011;43482;53.334;6.744;2022-09-09T01:29:22;8.85;;;8.10;;
57655;SDS011;43482;53.334;6.744;2022-09-09T01:34:34;8.73;;;8.02;;
57655;SDS011;43482;53.334;6.744;2022-09-09T01:37:08;11.47;;;8.57;;
57655;SDS011;43482;53.334;6.744;2022-09-09T01:39:37;8.43;;;7.43;;
57655;SDS011;43482;53.334;6.744;2022-09-09T01:42:06;10.25;;;9.20;;
57655;SDS011;43482;53.334;6.744;2022-09-09T01:44:34;9.10;;;8.23;;
57655;SDS011;43482;53.334;6.744;2022-09-09T01:47:01;8.68;;;7.90;;
57655;SDS011;43482;53.334;6.744;2022-09-09T01:49:27;10.45;;;7.72;;
57655;SDS011;43482;53.334;6.744;2022-09-09T01:51:53;8.50;;;7.82;;
57655;SDS011;43482;53.334;6.744;2022-09-09T01:54:20;7.93;;;7.32;;
57655;SDS011;43482;53.334;6.744;2022-09-09T01:59:57;8.38;;;7.45;;
57655;SDS011;43482;53.334;6.744;2022-09-09T02:02:44;9.73;;;8.90;;
57655;SDS011;43482;53.334;6.744;2022-09-09T02:07:47;9.57;;;8.63;;
57655;SDS011;43482;53.334;6.744;2022-09-09T02:10:21;11.55;;;7.25;;
57655;SDS011;43482;53.334;6.744;2022-09-09T02:12:57;10.57;;;8.75;;
57655;SDS011;43482;53.334;6.744;2022-09-09T02:18:08;9.30;;;8.48;;
57655;SDS011;43482;53.334;6.744;2022-09-09T02:20:37;9.25;;;8.45;;
57655;SDS011;43482;53.334;6.744;2022-09-09T02:23:03;8.48;;;7.70;;
57655;SDS011;43482;53.334;6.744;2022-09-09T02:25:30;9.25;;;7.90;;
57655;SDS011;43482;53.334;6.744;2022-09-09T02:27:55;9.25;;;8.48;;
57655;SDS011;43482;53.334;6.744;2022-09-09T02:30:25;9.63;;;8.75;;
57655;SDS011;43482;53.334;6.744;2022-09-09T02:32:54;9.80;;;9.00;;
57655;SDS011;43482;53.334;6.744;2022-09-09T02:35:23;8.95;;;8.32;;
57655;SDS011;43482;53.334;6.744;2022-09-09T02:37:52;8.40;;;7.72;;
57655;SDS011;43482;53.334;6.744;2022-09-09T02:40:21;10.15;;;9.35;;
57655;SDS011;43482;53.334;6.744;2022-09-09T02:42:47;9.57;;;8.95;;
57655;SDS011;43482;53.334;6.744;2022-09-09T02:45:14;8.82;;;8.07;;
57655;SDS011;43482;53.334;6.744;2022-09-09T02:54:00;9.13;;;8.23;;
57655;SDS011;43482;53.334;6.744;2022-09-09T02:56:35;8.88;;;8.18;;
57655;SDS011;43482;53.334;6.744;2022-09-09T02:59:06;8.85;;;8.05;;
57655;SDS011;43482;53.334;6.744;2022-09-09T03:01:32;8.48;;;7.82;;
57655;SDS011;43482;53.334;6.744;2022-09-09T03:03:57;9.80;;;8.80;;
57655;SDS011;43482;53.334;6.744;2022-09-09T03:06:23;9.52;;;8.85;;
57655;SDS011;43482;53.334;6.744;2022-09-09T03:08:48;10.32;;;9.45;;
57655;SDS011;43482;53.334;6.744;2022-09-09T03:11:15;9.60;;;8.80;;
57655;SDS011;43482;53.334;6.744;2022-09-09T03:13:41;10.10;;;9.27;;
57655;SDS011;43482;53.334;6.744;2022-09-09T03:16:06;9.48;;;8.75;;
57655;SDS011;43482;53.334;6.744;2022-09-09T03:18:31;9.77;;;8.95;;
57655;SDS011;43482;53.334;6.744;2022-09-09T03:20:57;10.65;;;9.20;;
57655;SDS011;43482;53.334;6.744;2022-09-09T03:23:23;9.15;;;8.40;;
57655;SDS011;43482;53.334;6.744;2022-09-09T03:25:49;12.75;;;11.60;;
57655;SDS011;43482;53.334;6.744;2022-09-09T03:28:15;11.68;;;10.63;;
57655;SDS011;43482;53.334;6.744;2022-09-09T03:30:40;7.78;;;7.20;;
57655;SDS011;43482;53.334;6.744;2022-09-09T03:33:06;9.93;;;9.23;;
57655;SDS011;43482;53.334;6.744;2022-09-09T03:35:31;8.38;;;7.78;;
57655;SDS011;43482;53.334;6.744;2022-09-09T03:37:56;9.20;;;8.55;;
57655;SDS011;43482;53.334;6.744;2022-09-09T03:40:22;9.35;;;8.45;;
57655;SDS011;43482;53.334;6.744;2022-09-09T03:42:47;11.20;;;10.40;;
57655;SDS011;43482;53.334;6.744;2022-09-09T03:45:13;11.13;;;10.32;;
57655;SDS011;43482;53.334;6.744;2022-09-09T03:47:39;15.10;;;10.70;;
57655;SDS011;43482;53.334;6.744;2022-09-09T03:50:05;10.25;;;9.45;;
57655;SDS011;43482;53.334;6.744;2022-09-09T03:52:37;11.43;;;10.73;;
57655;SDS011;43482;53.334;6.744;2022-09-09T03:55:03;11.50;;;10.50;;
57655;SDS011;43482;53.334;6.744;2022-09-09T03:57:30;17.00;;;8.93;;
57655;SDS011;43482;53.334;6.744;2022-09-09T03:59:55;13.70;;;9.75;;
57655;SDS011;43482;53.334;6.744;2022-09-09T04:02:21;9.52;;;8.93;;
57655;SDS011;43482;53.334;6.744;2022-09-09T04:04:46;10.73;;;9.90;;
57655;SDS011;43482;53.334;6.744;2022-09-09T04:07:12;12.82;;;9.02;;
57655;SDS011;43482;53.334;6.744;2022-09-09T04:09:38;8.50;;;7.90;;
57655;SDS011;43482;53.334;6.744;2022-09-09T04:12:03;8.57;;;8.00;;
57655;SDS011;43482;53.334;6.744;2022-09-09T04:14:29;9.27;;;8.68;;
57655;SDS011;43482;53.334;6.744;2022-09-09T04:16:54;9.25;;;8.68;;
57655;SDS011;43482;53.334;6.744;2022-09-09T04:19:22;10.98;;;10.27;;
57655;SDS011;43482;53.334;6.744;2022-09-09T04:21:47;12.40;;;11.35;;
57655;SDS011;43482;53.334;6.744;2022-09-09T04:24:16;13.73;;;12.27;;
57655;SDS011;43482;53.334;6.744;2022-09-09T04:26:42;12.52;;;11.70;;
57655;SDS011;43482;53.334;6.744;2022-09-09T04:29:07;10.55;;;9.85;;
57655;SDS011;43482;53.334;6.744;2022-09-09T04:31:33;11.77;;;11.07;;
57655;SDS011;43482;53.334;6.744;2022-09-09T04:33:58;12.18;;;11.38;;
57655;SDS011;43482;53.334;6.744;2022-09-09T04:38:55;12.38;;;11.73;;
57655;SDS011;43482;53.334;6.744;2022-09-09T04:41:20;11.95;;;11.27;;
57655;SDS011;43482;53.334;6.744;2022-09-09T04:43:45;12.05;;;11.25;;
57655;SDS011;43482;53.334;6.744;2022-09-09T04:46:11;10.52;;;9.73;;
57655;SDS011;43482;53.334;6.744;2022-09-09T04:48:36;12.57;;;11.65;;
57655;SDS011;43482;53.334;6.744;2022-09-09T04:51:05;10.82;;;10.23;;
57655;SDS011;43482;53.334;6.744;2022-09-09T04:53:33;11.55;;;10.73;;
57655;SDS011;43482;53.334;6.744;2022-09-09T04:56:06;11.27;;;10.57;;
57655;SDS011;43482;53.334;6.744;2022-09-09T04:58:35;12.07;;;11.45;;
57655;SDS011;43482;53.334;6.744;2022-09-09T05:01:23;11.13;;;10.52;;
57655;SDS011;43482;53.334;6.744;2022-09-09T05:03:48;10.75;;;10.00;;
57655;SDS011;43482;53.334;6.744;2022-09-09T05:06:15;10.30;;;9.50;;
57655;SDS011;43482;53.334;6.744;2022-09-09T05:08:42;9.20;;;8.55;;
57655;SDS011;43482;53.334;6.744;2022-09-09T05:11:18;9.75;;;9.25;;
57655;SDS011;43482;53.334;6.744;2022-09-09T05:13:49;10.80;;;9.73;;
57655;SDS011;43482;53.334;6.744;2022-09-09T05:16:15;10.50;;;9.77;;
57655;SDS011;43482;53.334;6.744;2022-09-09T05:18:41;10.82;;;10.32;;
57655;SDS011;43482;53.334;6.744;2022-09-09T05:21:08;12.90;;;12.07;;
57655;SDS011;43482;53.334;6.744;2022-09-09T05:23:34;13.25;;;12.43;;
57655;SDS011;43482;53.334;6.744;2022-09-09T05:26:00;14.20;;;13.52;;
57655;SDS011;43482;53.334;6.744;2022-09-09T05:28:26;17.30;;;16.33;;
57655;SDS011;43482;53.334;6.744;2022-09-09T05:31:00;15.68;;;14.98;;
57655;SDS011;43482;53.334;6.744;2022-09-09T05:33:28;13.60;;;13.00;;
57655;SDS011;43482;53.334;6.744;2022-09-09T05:35:55;14.52;;;13.80;;
57655;SDS011;43482;53.334;6.744;2022-09-09T05:38:21;15.52;;;14.38;;
57655;SDS011;43482;53.334;6.744;2022-09-09T05:40:49;12.63;;;11.73;;
57655;SDS011;43482;53.334;6.744;2022-09-09T05:43:15;19.85;;;18.90;;
57655;SDS011;43482;53.334;6.744;2022-09-09T05:45:40;18.58;;;17.73;;
57655;SDS011;43482;53.334;6.744;2022-09-09T05:48:05;17.92;;;16.92;;
57655;SDS011;43482;53.334;6.744;2022-09-09T05:50:32;20.25;;;19.25;;
57655;SDS011;43482;53.334;6.744;2022-09-09T05:52:57;24.30;;;23.10;;
57655;SDS011;43482;53.334;6.744;2022-09-09T05:55:23;20.98;;;20.00;;
57655;SDS011;43482;53.334;6.744;2022-09-09T05:57:48;20.60;;;19.48;;
57655;SDS011;43482;53.334;6.744;2022-09-09T06:00:14;20.92;;;19.80;;
57655;SDS011;43482;53.334;6.744;2022-09-09T06:02:41;23.15;;;21.98;;
57655;SDS011;43482;53.334;6.744;2022-09-09T06:05:06;22.98;;;21.77;;
57655;SDS011;43482;53.334;6.744;2022-09-09T06:07:33;19.80;;;18.90;;
57655;SDS011;43482;53.334;6.744;2022-09-09T06:09:58;22.73;;;21.58;;
57655;SDS011;43482;53.334;6.744;2022-09-09T06:12:25;21.95;;;20.75;;
57655;SDS011;43482;53.334;6.744;2022-09-09T06:14:51;21.98;;;20.75;;
57655;SDS011;43482;53.334;6.744;2022-09-09T06:17:16;23.60;;;22.52;;
57655;SDS011;43482;53.334;6.744;2022-09-09T06:19:42;25.40;;;23.80;;
57655;SDS011;43482;53.334;6.744;2022-09-09T06:22:07;27.02;;;25.65;;
57655;SDS011;43482;53.334;6.744;2022-09-09T06:24:34;24.90;;;23.38;;
57655;SDS011;43482;53.334;6.744;2022-09-09T06:26:59;24.90;;;23.70;;
57655;SDS011;43482;53.334;6.744;2022-09-09T06:29:25;29.25;;;27.73;;
57655;SDS011;43482;53.334;6.744;2022-09-09T06:31:50;28.85;;;27.58;;
57655;SDS011;43482;53.334;6.744;2022-09-09T06:34:16;30.30;;;28.90;;
57655;SDS011;43482;53.334;6.744;2022-09-09T06:36:41;30.33;;;28.80;;
57655;SDS011;43482;53.334;6.744;2022-09-09T06:39:07;29.30;;;27.27;;
57655;SDS011;43482;53.334;6.744;2022-09-09T06:41:35;28.55;;;27.05;;
57655;SDS011;43482;53.334;6.744;2022-09-09T06:44:02;28.02;;;26.73;;
57655;SDS011;43482;53.334;6.744;2022-09-09T06:46:29;31.02;;;29.50;;
57655;SDS011;43482;53.334;6.744;2022-09-09T06:48:57;30.10;;;28.63;;
57655;SDS011;43482;53.334;6.744;2022-09-09T06:51:31;35.08;;;33.50;;
57655;SDS011;43482;53.334;6.744;2022-09-09T06:53:59;32.65;;;31.02;;
57655;SDS011;43482;53.334;6.744;2022-09-09T06:56:30;42.88;;;40.83;;
57655;SDS011;43482;53.334;6.744;2022-09-09T06:59:01;33.10;;;31.58;;
57655;SDS011;43482;53.334;6.744;2022-09-09T07:01:32;35.85;;;34.17;;
57655;SDS011;43482;53.334;6.744;2022-09-09T07:03:58;37.67;;;35.65;;
57655;SDS011;43482;53.334;6.744;2022-09-09T07:06:25;38.10;;;36.33;;
57655;SDS011;43482;53.334;6.744;2022-09-09T07:08:53;36.85;;;35.20;;
57655;SDS011;43482;53.334;6.744;2022-09-09T07:11:20;38.75;;;36.95;;
57655;SDS011;43482;53.334;6.744;2022-09-09T07:13:47;40.97;;;38.90;;
57655;SDS011;43482;53.334;6.744;2022-09-09T07:16:15;39.92;;;37.88;;
57655;SDS011;43482;53.334;6.744;2022-09-09T07:18:42;34.90;;;33.13;;
57655;SDS011;43482;53.334;6.744;2022-09-09T07:21:09;36.60;;;34.92;;
57655;SDS011;43482;53.334;6.744;2022-09-09T07:23:36;36.10;;;34.40;;
57655;SDS011;43482;53.334;6.744;2022-09-09T07:26:07;32.38;;;30.52;;
57655;SDS011;43482;53.334;6.744;2022-09-09T07:28:35;33.85;;;32.15;;
57655;SDS011;43482;53.334;6.744;2022-09-09T07:31:01;33.33;;;31.88;;
57655;SDS011;43482;53.334;6.744;2022-09-09T07:33:28;35.53;;;33.85;;
57655;SDS011;43482;53.334;6.744;2022-09-09T07:36:08;32.33;;;30.83;;
57655;SDS011;43482;53.334;6.744;2022-09-09T07:39:01;24.52;;;23.23;;
57655;SDS011;43482;53.334;6.744;2022-09-09T07:41:31;29.80;;;28.30;;
57655;SDS011;43482;53.334;6.744;2022-09-09T07:43:59;18.83;;;17.73;;
57655;SDS011;43482;53.334;6.744;2022-09-09T07:46:25;18.17;;;17.08;;
57655;SDS011;43482;53.334;6.744;2022-09-09T07:48:52;17.83;;;17.02;;
57655;SDS011;43482;53.334;6.744;2022-09-09T07:53:51;16.33;;;15.43;;
57655;SDS011;43482;53.334;6.744;2022-09-09T07:56:20;22.48;;;21.45;;
57655;SDS011;43482;53.334;6.744;2022-09-09T07:58:48;30.13;;;28.92;;
57655;SDS011;43482;53.334;6.744;2022-09-09T08:06:19;29.48;;;28.02;;
57655;SDS011;43482;53.334;6.744;2022-09-09T08:08:45;42.22;;;40.50;;
57655;SDS011;43482;53.334;6.744;2022-09-09T08:11:15;32.07;;;30.57;;
57655;SDS011;43482;53.334;6.744;2022-09-09T08:13:41;33.78;;;32.28;;
57655;SDS011;43482;53.334;6.744;2022-09-09T08:16:09;31.42;;;29.92;;
57655;SDS011;43482;53.334;6.744;2022-09-09T08:18:37;19.23;;;18.33;;
57655;SDS011;43482;53.334;6.744;2022-09-09T08:21:13;21.33;;;20.30;;
57655;SDS011;43482;53.334;6.744;2022-09-09T08:23:43;17.75;;;16.88;;
57655;SDS011;43482;53.334;6.744;2022-09-09T08:28:40;16.88;;;16.00;;
57655;SDS011;43482;53.334;6.744;2022-09-09T08:31:11;26.85;;;25.67;;
57655;SDS011;43482;53.334;6.744;2022-09-09T08:33:37;25.00;;;23.30;;
57655;SDS011;43482;53.334;6.744;2022-09-09T08:36:03;11.55;;;10.95;;
57655;SDS011;43482;53.334;6.744;2022-09-09T08:38:30;13.15;;;12.35;;
57655;SDS011;43482;53.334;6.744;2022-09-09T08:40:58;11.32;;;10.68;;
57655;SDS011;43482;53.334;6.744;2022-09-09T08:43:52;9.57;;;8.98;;
57655;SDS011;43482;53.334;6.744;2022-09-09T08:46:37;8.30;;;7.78;;
57655;SDS011;43482;53.334;6.744;2022-09-09T08:52:01;8.32;;;7.63;;
57655;SDS011;43482;53.334;6.744;2022-09-09T08:54:28;10.68;;;9.98;;
57655;SDS011;43482;53.334;6.744;2022-09-09T08:56:58;7.53;;;7.13;;
57655;SDS011;43482;53.334;6.744;2022-09-09T08:59:23;7.80;;;7.25;;
57655;SDS011;43482;53.334;6.744;2022-09-09T09:02:04;8.23;;;7.63;;
57655;SDS011;43482;53.334;6.744;2022-09-09T09:04:45;7.97;;;7.47;;
57655;SDS011;43482;53.334;6.744;2022-09-09T09:07:44;8.98;;;8.38;;
57655;SDS011;43482;53.334;6.744;2022-09-09T09:13:04;9.07;;;8.57;;
57655;SDS011;43482;53.334;6.744;2022-09-09T09:15:38;8.20;;;7.60;;
57655;SDS011;43482;53.334;6.744;2022-09-09T09:18:05;8.65;;;8.10;;
57655;SDS011;43482;53.334;6.744;2022-09-09T09:20:58;9.38;;;8.88;;
57655;SDS011;43482;53.334;6.744;2022-09-09T09:24:19;6.70;;;6.20;;
57655;SDS011;43482;53.334;6.744;2022-09-09T09:26:32;6.70;;;6.28;;
57655;SDS011;43482;53.334;6.744;2022-09-09T09:29:00;8.30;;;7.80;;
57655;SDS011;43482;53.334;6.744;2022-09-09T09:31:35;8.27;;;7.45;;
57655;SDS011;43482;53.334;6.744;2022-09-09T09:34:00;8.18;;;7.40;;
57655;SDS011;43482;53.334;6.744;2022-09-09T09:36:43;8.23;;;7.63;;
57655;SDS011;43482;53.334;6.744;2022-09-09T09:39:21;10.65;;;10.05;;
57655;SDS011;43482;53.334;6.744;2022-09-09T09:41:51;13.23;;;11.95;;
57655;SDS011;43482;53.334;6.744;2022-09-09T09:44:24;19.40;;;18.55;;
57655;SDS011;43482;53.334;6.744;2022-09-09T09:47:11;30.08;;;28.83;;
57655;SDS011;43482;53.334;6.744;2022-09-09T09:49:39;11.60;;;10.80;;
57655;SDS011;43482;53.334;6.744;2022-09-09T09:52:05;9.88;;;9.23;;
57655;SDS011;43482;53.334;6.744;2022-09-09T09:54:41;9.20;;;7.68;;
57655;SDS011;43482;53.334;6.744;2022-09-09T09:57:08;9.43;;;8.70;;
57655;SDS011;43482;53.334;6.744;2022-09-09T09:59:36;9.13;;;7.40;;
57655;SDS011;43482;53.334;6.744;2022-09-09T10:05:00;8.85;;;8.13;;
57655;SDS011;43482;53.334;6.744;2022-09-09T10:07:46;8.45;;;7.65;;
57655;SDS011;43482;53.334;6.744;2022-09-09T10:10:26;9.27;;;8.65;;
57655;SDS011;43482;53.334;6.744;2022-09-09T10:13:09;9.43;;;8.98;;
57655;SDS011;43482;53.334;6.744;2022-09-09T10:16:06;8.13;;;7.25;;
57655;SDS011;43482;53.334;6.744;2022-09-09T10:18:58;8.18;;;7.57;;
57655;SDS011;43482;53.334;6.744;2022-09-09T10:21:43;8.63;;;8.05;;
57655;SDS011;43482;53.334;6.744;2022-09-09T10:33:25;6.13;;;5.72;;
57655;SDS011;43482;53.334;6.744;2022-09-09T10:36:11;6.80;;;6.40;;
57655;SDS011;43482;53.334;6.744;2022-09-09T10:39:04;10.90;;;10.05;;
57655;SDS011;43482;53.334;6.744;2022-09-09T10:47:35;7.60;;;6.97;;
57655;SDS011;43482;53.334;6.744;2022-09-09T10:56:06;5.40;;;5.10;;
57655;SDS011;43482;53.334;6.744;2022-09-09T10:58:37;6.47;;;5.93;;
57655;SDS011;43482;53.334;6.744;2022-09-09T11:01:18;6.20;;;5.85;;
57655;SDS011;43482;53.334;6.744;2022-09-09T11:03:55;6.57;;;6.07;;
57655;SDS011;43482;53.334;6.744;2022-09-09T11:06:36;7.18;;;6.55;;
57655;SDS011;43482;53.334;6.744;2022-09-09T11:09:08;6.50;;;6.00;;
57655;SDS011;43482;53.334;6.744;2022-09-09T11:11:53;8.00;;;6.10;;
57655;SDS011;43482;53.334;6.744;2022-09-09T11:14:36;4.82;;;4.47;;
57655;SDS011;43482;53.334;6.744;2022-09-09T11:17:09;6.28;;;4.90;;
57655;SDS011;43482;53.334;6.744;2022-09-09T11:19:39;4.63;;;4.00;;
57655;SDS011;43482;53.334;6.744;2022-09-09T11:27:49;4.97;;;4.65;;
57655;SDS011;43482;53.334;6.744;2022-09-09T11:30:46;5.55;;;2.75;;
57655;SDS011;43482;53.334;6.744;2022-09-09T11:38:50;5.82;;;1.83;;
57655;SDS011;43482;53.334;6.744;2022-09-09T11:41:17;5.63;;;1.92;;
57655;SDS011;43482;53.334;6.744;2022-09-09T11:43:46;4.82;;;1.98;;
57655;SDS011;43482;53.334;6.744;2022-09-09T11:46:14;2.53;;;1.83;;
57655;SDS011;43482;53.334;6.744;2022-09-09T11:48:57;4.43;;;2.38;;
57655;SDS011;43482;53.334;6.744;2022-09-09T11:51:26;3.05;;;1.67;;
57655;SDS011;43482;53.334;6.744;2022-09-09T11:53:55;7.85;;;1.95;;
57655;SDS011;43482;53.334;6.744;2022-09-09T11:56:34;1.83;;;1.40;;
57655;SDS011;43482;53.334;6.744;2022-09-09T11:59:25;7.13;;;1.55;;
57655;SDS011;43482;53.334;6.744;2022-09-09T12:04:30;3.35;;;2.78;;
57655;SDS011;43482;53.334;6.744;2022-09-09T12:07:00;3.38;;;3.17;;
57655;SDS011;43482;53.334;6.744;2022-09-09T12:09:45;5.47;;;4.20;;
57655;SDS011;43482;53.334;6.744;2022-09-09T12:19:40;4.20;;;2.65;;
57655;SDS011;43482;53.334;6.744;2022-09-09T12:22:14;4.30;;;4.00;;
57655;SDS011;43482;53.334;6.744;2022-09-09T12:28:01;4.35;;;2.60;;
57655;SDS011;43482;53.334;6.744;2022-09-09T12:30:32;1.98;;;1.58;;
57655;SDS011;43482;53.334;6.744;2022-09-09T12:33:20;5.07;;;2.47;;
57655;SDS011;43482;53.334;6.744;2022-09-09T12:35:51;2.88;;;2.60;;
57655;SDS011;43482;53.334;6.744;2022-09-09T12:38:22;7.57;;;4.00;;
57655;SDS011;43482;53.334;6.744;2022-09-09T12:40:58;4.50;;;3.63;;
57655;SDS011;43482;53.334;6.744;2022-09-09T12:43:24;6.00;;;4.43;;
57655;SDS011;43482;53.334;6.744;2022-09-09T12:45:51;4.25;;;3.95;;
57655;SDS011;43482;53.334;6.744;2022-09-09T12:48:46;3.33;;;2.35;;
57655;SDS011;43482;53.334;6.744;2022-09-09T12:51:32;2.97;;;2.25;;
57655;SDS011;43482;53.334;6.744;2022-09-09T12:54:00;5.47;;;1.13;;
57655;SDS011;43482;53.334;6.744;2022-09-09T12:56:32;2.45;;;1.50;;
57655;SDS011;43482;53.334;6.744;2022-09-09T12:58:58;2.00;;;1.67;;
57655;SDS011;43482;53.334;6.744;2022-09-09T13:01:31;2.42;;;1.85;;
57655;SDS011;43482;53.334;6.744;2022-09-09T13:03:58;3.97;;;3.03;;
57655;SDS011;43482;53.334;6.744;2022-09-09T13:06:30;15.10;;;14.20;;
57655;SDS011;43482;53.334;6.744;2022-09-09T13:08:58;32.20;;;30.83;;
57655;SDS011;43482;53.334;6.744;2022-09-09T13:13:54;38.20;;;36.70;;
57655;SDS011;43482;53.334;6.744;2022-09-09T13:16:26;32.45;;;31.13;;
57655;SDS011;43482;53.334;6.744;2022-09-09T13:19:00;13.85;;;12.93;;
57655;SDS011;43482;53.334;6.744;2022-09-09T13:21:35;30.25;;;28.98;;
57655;SDS011;43482;53.334;6.744;2022-09-09T13:24:05;8.35;;;7.85;;
57655;SDS011;43482;53.334;6.744;2022-09-09T13:26:53;5.63;;;5.32;;
57655;SDS011;43482;53.334;6.744;2022-09-09T13:29:39;3.55;;;3.25;;
57655;SDS011;43482;53.334;6.744;2022-09-09T13:32:06;3.03;;;2.83;;
57655;SDS011;43482;53.334;6.744;2022-09-09T13:34:49;3.03;;;2.83;;
57655;SDS011;43482;53.334;6.744;2022-09-09T13:37:23;3.80;;;2.13;;
57655;SDS011;43482;53.334;6.744;2022-09-09T13:39:57;5.15;;;1.75;;
57655;SDS011;43482;53.334;6.744;2022-09-09T13:42:27;5.28;;;1.67;;
57655;SDS011;43482;53.334;6.744;2022-09-09T13:44:55;2.05;;;1.95;;
57655;SDS011;43482;53.334;6.744;2022-09-09T13:47:27;2.47;;;2.20;;
57655;SDS011;43482;53.334;6.744;2022-09-09T13:49:56;4.30;;;3.38;;
57655;SDS011;43482;53.334;6.744;2022-09-09T13:52:22;2.30;;;2.10;;
57655;SDS011;43482;53.334;6.744;2022-09-09T13:54:48;2.70;;;2.50;;
57655;SDS011;43482;53.334;6.744;2022-09-09T13:59:43;3.85;;;3.40;;
57655;SDS011;43482;53.334;6.744;2022-09-09T14:02:09;3.20;;;2.90;;
57655;SDS011;43482;53.334;6.744;2022-09-09T14:04:34;4.78;;;4.18;;
57655;SDS011;43482;53.334;6.744;2022-09-09T14:07:00;4.43;;;2.67;;
57655;SDS011;43482;53.334;6.744;2022-09-09T14:09:25;3.63;;;3.35;;
57655;SDS011;43482;53.334;6.744;2022-09-09T14:11:51;4.22;;;3.92;;
57655;SDS011;43482;53.334;6.744;2022-09-09T14:14:16;4.28;;;3.95;;
57655;SDS011;43482;53.334;6.744;2022-09-09T14:16:42;4.38;;;4.07;;
57655;SDS011;43482;53.334;6.744;2022-09-09T14:19:08;4.78;;;3.78;;
57655;SDS011;43482;53.334;6.744;2022-09-09T14:21:34;5.22;;;4.93;;
57655;SDS011;43482;53.334;6.744;2022-09-09T14:24:00;39.17;;;37.58;;
57655;SDS011;43482;53.334;6.744;2022-09-09T14:26:25;29.25;;;28.02;;
57655;SDS011;43482;53.334;6.744;2022-09-09T14:28:51;14.27;;;13.65;;
57655;SDS011;43482;53.334;6.744;2022-09-09T14:31:16;13.88;;;13.27;;
57655;SDS011;43482;53.334;6.744;2022-09-09T14:33:43;9.10;;;8.43;;
57655;SDS011;43482;53.334;6.744;2022-09-09T14:36:09;9.02;;;8.40;;
57655;SDS011;43482;53.334;6.744;2022-09-09T14:38:35;8.20;;;7.88;;
57655;SDS011;43482;53.334;6.744;2022-09-09T14:41:11;8.98;;;8.27;;
57655;SDS011;43482;53.334;6.744;2022-09-09T14:43:41;18.50;;;17.77;;
57655;SDS011;43482;53.334;6.744;2022-09-09T14:46:08;25.23;;;24.33;;
57655;SDS011;43482;53.334;6.744;2022-09-09T14:48:39;32.65;;;31.30;;
57655;SDS011;43482;53.334;6.744;2022-09-09T14:53:35;45.67;;;43.80;;
57655;SDS011;43482;53.334;6.744;2022-09-09T14:56:08;36.70;;;35.22;;
57655;SDS011;43482;53.334;6.744;2022-09-09T14:58:35;16.48;;;15.77;;
57655;SDS011;43482;53.334;6.744;2022-09-09T15:01:02;9.18;;;8.57;;
57655;SDS011;43482;53.334;6.744;2022-09-09T15:03:32;9.60;;;9.02;;
57655;SDS011;43482;53.334;6.744;2022-09-09T15:05:58;8.82;;;8.27;;
57655;SDS011;43482;53.334;6.744;2022-09-09T15:08:24;18.52;;;17.83;;
57655;SDS011;43482;53.334;6.744;2022-09-09T15:10:50;19.73;;;18.52;;
57655;SDS011;43482;53.334;6.744;2022-09-09T15:13:23;32.78;;;31.35;;
57655;SDS011;43482;53.334;6.744;2022-09-09T15:15:49;44.45;;;42.75;;
57655;SDS011;43482;53.334;6.744;2022-09-09T15:18:15;33.58;;;32.10;;
57655;SDS011;43482;53.334;6.744;2022-09-09T15:20:44;22.88;;;21.05;;
57655;SDS011;43482;53.334;6.744;2022-09-09T15:23:11;10.75;;;10.27;;
57655;SDS011;43482;53.334;6.744;2022-09-09T15:25:36;11.00;;;10.60;;
57655;SDS011;43482;53.334;6.744;2022-09-09T15:28:02;7.75;;;7.32;;
57655;SDS011;43482;53.334;6.744;2022-09-09T15:30:27;9.25;;;8.85;;
57655;SDS011;43482;53.334;6.744;2022-09-09T15:32:52;10.40;;;9.63;;
57655;SDS011;43482;53.334;6.744;2022-09-09T15:35:18;9.98;;;9.50;;
57655;SDS011;43482;53.334;6.744;2022-09-09T15:37:43;10.60;;;9.95;;
57655;SDS011;43482;53.334;6.744;2022-09-09T15:40:10;15.85;;;15.23;;
57655;SDS011;43482;53.334;6.744;2022-09-09T15:42:35;18.13;;;17.45;;
57655;SDS011;43482;53.334;6.744;2022-09-09T15:45:00;29.13;;;28.02;;
57655;SDS011;43482;53.334;6.744;2022-09-09T15:47:26;13.10;;;12.43;;
57655;SDS011;43482;53.334;6.744;2022-09-09T15:49:52;15.88;;;15.27;;
57655;SDS011;43482;53.334;6.744;2022-09-09T15:52:17;33.40;;;31.75;;
57655;SDS011;43482;53.334;6.744;2022-09-09T15:54:43;18.35;;;17.33;;
57655;SDS011;43482;53.334;6.744;2022-09-09T15:57:11;12.43;;;11.75;;
57655;SDS011;43482;53.334;6.744;2022-09-09T15:59:37;14.15;;;13.50;;
57655;SDS011;43482;53.334;6.744;2022-09-09T16:02:03;26.98;;;25.95;;
57655;SDS011;43482;53.334;6.744;2022-09-09T16:04:30;22.55;;;21.60;;
57655;SDS011;43482;53.334;6.744;2022-09-09T16:06:57;25.52;;;24.42;;
57655;SDS011;43482;53.334;6.744;2022-09-09T16:09:25;46.70;;;45.00;;
57655;SDS011;43482;53.334;6.744;2022-09-09T16:11:51;38.58;;;36.80;;
57655;SDS011;43482;53.334;6.744;2022-09-09T16:14:18;30.50;;;29.08;;
57655;SDS011;43482;53.334;6.744;2022-09-09T16:16:43;37.25;;;35.88;;
57655;SDS011;43482;53.334;6.744;2022-09-09T16:19:10;33.08;;;31.90;;
57655;SDS011;43482;53.334;6.744;2022-09-09T16:21:41;30.58;;;29.48;;
57655;SDS011;43482;53.334;6.744;2022-09-09T16:26:35;20.67;;;19.95;;
57655;SDS011;43482;53.334;6.744;2022-09-09T16:29:03;25.30;;;24.33;;
57655;SDS011;43482;53.334;6.744;2022-09-09T16:31:29;31.88;;;30.77;;
57655;SDS011;43482;53.334;6.744;2022-09-09T16:33:55;33.53;;;32.33;;
57655;SDS011;43482;53.334;6.744;2022-09-09T16:36:22;37.65;;;36.15;;
57655;SDS011;43482;53.334;6.744;2022-09-09T16:38:53;36.75;;;35.45;;
57655;SDS011;43482;53.334;6.744;2022-09-09T16:41:20;30.50;;;29.42;;
57655;SDS011;43482;53.334;6.744;2022-09-09T16:43:46;44.72;;;42.78;;
57655;SDS011;43482;53.334;6.744;2022-09-09T16:46:12;41.22;;;39.72;;
57655;SDS011;43482;53.334;6.744;2022-09-09T16:48:42;41.15;;;39.58;;
57655;SDS011;43482;53.334;6.744;2022-09-09T16:51:12;43.65;;;41.75;;
57655;SDS011;43482;53.334;6.744;2022-09-09T16:53:44;43.22;;;41.65;;
57655;SDS011;43482;53.334;6.744;2022-09-09T16:56:12;40.70;;;39.20;;
57655;SDS011;43482;53.334;6.744;2022-09-09T16:58:41;29.05;;;27.85;;
57655;SDS011;43482;53.334;6.744;2022-09-09T17:01:10;22.48;;;21.63;;